Oran, Iowa
Current Conditions -  °F | °C
As of 3:55 PM on Saturday 25 Oct 2014 (Local Time) from KOLZ Reporting Station
Clear Clear  
Wind Chill: 66°   Ceiling: Unl
Heat Index: 66°   Visibility: 10mi
Dew Point: 32°   Wind: 17mph
Humidity: 28%   Direction: 310°NW
Pressure: 30.04"   Gusts: 25mph
Location:  42.7°N, 92.07°W
Report Text: KOLZ 252055Z AUTO 31015G22KT 10SM CLR 19/M00 A3004 RMK AO2
Loading
Personal Weather Stations






























Interactive Weather Map
Tropical Storm Tracking
New forecast layout! Learn more

10-Day Weather Forecast

Advertisements
Track Severe Weather on mobile